sensor_id;sensor_type;location;lat;lon;timestamp;P1;durP1;ratioP1;P2;durP2;ratioP2
60233;SDS011;49514;43.538;-5.708;2023-02-01T00:01:22;20.67;;;9.70;;
60233;SDS011;49514;43.538;-5.708;2023-02-01T00:03:49;20.80;;;10.00;;
60233;SDS011;49514;43.538;-5.708;2023-02-01T00:06:15;17.47;;;8.70;;
60233;SDS011;49514;43.538;-5.708;2023-02-01T00:08:42;19.98;;;9.15;;
60233;SDS011;49514;43.538;-5.708;2023-02-01T00:11:10;18.70;;;8.93;;
60233;SDS011;49514;43.538;-5.708;2023-02-01T00:13:38;17.45;;;9.23;;
60233;SDS011;49514;43.538;-5.708;2023-02-01T00:16:07;24.02;;;10.95;;
60233;SDS011;49514;43.538;-5.708;2023-02-01T00:18:38;25.20;;;11.63;;
60233;SDS011;49514;43.538;-5.708;2023-02-01T00:21:04;26.03;;;12.23;;
60233;SDS011;49514;43.538;-5.708;2023-02-01T00:23:32;29.87;;;13.20;;
60233;SDS011;49514;43.538;-5.708;2023-02-01T00:26:00;32.42;;;12.63;;
60233;SDS011;49514;43.538;-5.708;2023-02-01T00:28:28;23.02;;;11.85;;
60233;SDS011;49514;43.538;-5.708;2023-02-01T00:30:58;23.10;;;11.00;;
60233;SDS011;49514;43.538;-5.708;2023-02-01T00:33:26;22.52;;;10.45;;
60233;SDS011;49514;43.538;-5.708;2023-02-01T00:35:57;23.20;;;11.03;;
60233;SDS011;49514;43.538;-5.708;2023-02-01T00:38:25;24.75;;;11.30;;
60233;SDS011;49514;43.538;-5.708;2023-02-01T00:40:52;26.87;;;12.10;;
60233;SDS011;49514;43.538;-5.708;2023-02-01T00:43:19;24.97;;;11.33;;
60233;SDS011;49514;43.538;-5.708;2023-02-01T00:45:46;22.92;;;11.45;;
60233;SDS011;49514;43.538;-5.708;2023-02-01T00:48:13;18.63;;;9.10;;
60233;SDS011;49514;43.538;-5.708;2023-02-01T00:50:43;20.38;;;8.82;;
60233;SDS011;49514;43.538;-5.708;2023-02-01T00:53:10;20.52;;;8.75;;
60233;SDS011;49514;43.538;-5.708;2023-02-01T00:55:37;28.50;;;11.55;;
60233;SDS011;49514;43.538;-5.708;2023-02-01T00:58:04;21.42;;;9.55;;
60233;SDS011;49514;43.538;-5.708;2023-02-01T01:00:32;19.40;;;9.07;;
60233;SDS011;49514;43.538;-5.708;2023-02-01T01:02:59;26.63;;;10.00;;
60233;SDS011;49514;43.538;-5.708;2023-02-01T01:05:25;28.92;;;10.27;;
60233;SDS011;49514;43.538;-5.708;2023-02-01T01:07:53;30.88;;;10.80;;
60233;SDS011;49514;43.538;-5.708;2023-02-01T01:10:20;29.95;;;10.23;;
60233;SDS011;49514;43.538;-5.708;2023-02-01T01:12:46;27.37;;;10.00;;
60233;SDS011;49514;43.538;-5.708;2023-02-01T01:15:13;26.55;;;10.45;;
60233;SDS011;49514;43.538;-5.708;2023-02-01T01:17:40;28.80;;;10.63;;
60233;SDS011;49514;43.538;-5.708;2023-02-01T01:20:06;25.73;;;11.32;;
60233;SDS011;49514;43.538;-5.708;2023-02-01T01:22:34;24.27;;;11.07;;
60233;SDS011;49514;43.538;-5.708;2023-02-01T01:25:00;22.33;;;9.70;;
60233;SDS011;49514;43.538;-5.708;2023-02-01T01:27:27;28.77;;;10.43;;
60233;SDS011;49514;43.538;-5.708;2023-02-01T01:29:53;24.50;;;9.70;;
60233;SDS011;49514;43.538;-5.708;2023-02-01T01:32:20;23.10;;;9.45;;
60233;SDS011;49514;43.538;-5.708;2023-02-01T01:34:47;22.40;;;9.77;;
60233;SDS011;49514;43.538;-5.708;2023-02-01T01:37:13;23.95;;;9.25;;
60233;SDS011;49514;43.538;-5.708;2023-02-01T01:39:40;22.57;;;10.00;;
60233;SDS011;49514;43.538;-5.708;2023-02-01T01:42:09;25.87;;;10.67;;
60233;SDS011;49514;43.538;-5.708;2023-02-01T01:47:41;26.90;;;10.63;;
60233;SDS011;49514;43.538;-5.708;2023-02-01T01:50:13;25.23;;;10.98;;
60233;SDS011;49514;43.538;-5.708;2023-02-01T01:52:44;22.17;;;10.30;;
60233;SDS011;49514;43.538;-5.708;2023-02-01T01:55:15;21.48;;;9.55;;
60233;SDS011;49514;43.538;-5.708;2023-02-01T01:57:47;25.60;;;11.60;;
60233;SDS011;49514;43.538;-5.708;2023-02-01T02:00:21;33.08;;;12.27;;
60233;SDS011;49514;43.538;-5.708;2023-02-01T02:02:52;30.45;;;12.27;;
60233;SDS011;49514;43.538;-5.708;2023-02-01T02:05:22;22.38;;;10.20;;
60233;SDS011;49514;43.538;-5.708;2023-02-01T02:07:49;26.73;;;11.50;;
60233;SDS011;49514;43.538;-5.708;2023-02-01T02:10:19;23.67;;;10.20;;
60233;SDS011;49514;43.538;-5.708;2023-02-01T02:12:46;17.83;;;8.50;;
60233;SDS011;49514;43.538;-5.708;2023-02-01T02:15:14;27.57;;;8.90;;
60233;SDS011;49514;43.538;-5.708;2023-02-01T02:23:20;17.02;;;7.97;;
60233;SDS011;49514;43.538;-5.708;2023-02-01T02:26:01;15.65;;;8.02;;
60233;SDS011;49514;43.538;-5.708;2023-02-01T02:28:46;14.77;;;7.70;;
60233;SDS011;49514;43.538;-5.708;2023-02-01T02:39:54;14.20;;;7.80;;
60233;SDS011;49514;43.538;-5.708;2023-02-01T02:42:43;13.80;;;7.60;;
60233;SDS011;49514;43.538;-5.708;2023-02-01T02:45:44;13.77;;;7.40;;
60233;SDS011;49514;43.538;-5.708;2023-02-01T02:48:38;14.05;;;7.13;;
60233;SDS011;49514;43.538;-5.708;2023-02-01T02:51:13;13.32;;;7.50;;
60233;SDS011;49514;43.538;-5.708;2023-02-01T02:54:14;16.27;;;7.90;;
60233;SDS011;49514;43.538;-5.708;2023-02-01T02:57:03;16.27;;;7.82;;
60233;SDS011;49514;43.538;-5.708;2023-02-01T02:59:53;19.77;;;8.53;;
60233;SDS011;49514;43.538;-5.708;2023-02-01T03:02:41;17.53;;;8.53;;
60233;SDS011;49514;43.538;-5.708;2023-02-01T03:05:34;14.73;;;8.30;;
60233;SDS011;49514;43.538;-5.708;2023-02-01T03:08:15;15.47;;;8.17;;
60233;SDS011;49514;43.538;-5.708;2023-02-01T03:15:51;15.68;;;7.30;;
60233;SDS011;49514;43.538;-5.708;2023-02-01T03:21:48;12.88;;;7.15;;
60233;SDS011;49514;43.538;-5.708;2023-02-01T03:24:25;13.38;;;7.63;;
60233;SDS011;49514;43.538;-5.708;2023-02-01T03:27:05;13.50;;;7.00;;
60233;SDS011;49514;43.538;-5.708;2023-02-01T03:32:45;12.50;;;6.75;;
60233;SDS011;49514;43.538;-5.708;2023-02-01T03:35:33;10.90;;;6.50;;
60233;SDS011;49514;43.538;-5.708;2023-02-01T03:40:57;12.52;;;7.30;;
60233;SDS011;49514;43.538;-5.708;2023-02-01T03:43:51;17.05;;;7.72;;
60233;SDS011;49514;43.538;-5.708;2023-02-01T03:46:30;14.35;;;7.50;;
60233;SDS011;49514;43.538;-5.708;2023-02-01T03:49:05;13.90;;;7.18;;
60233;SDS011;49514;43.538;-5.708;2023-02-01T03:51:40;15.02;;;7.82;;
60233;SDS011;49514;43.538;-5.708;2023-02-01T03:54:09;18.70;;;7.97;;
60233;SDS011;49514;43.538;-5.708;2023-02-01T03:56:40;15.07;;;8.00;;
60233;SDS011;49514;43.538;-5.708;2023-02-01T03:59:10;19.17;;;8.88;;
60233;SDS011;49514;43.538;-5.708;2023-02-01T04:01:38;14.43;;;7.65;;
60233;SDS011;49514;43.538;-5.708;2023-02-01T04:04:05;11.25;;;6.50;;
60233;SDS011;49514;43.538;-5.708;2023-02-01T04:06:32;10.95;;;6.07;;
60233;SDS011;49514;43.538;-5.708;2023-02-01T04:09:02;11.50;;;6.10;;
60233;SDS011;49514;43.538;-5.708;2023-02-01T04:11:28;11.05;;;6.03;;
60233;SDS011;49514;43.538;-5.708;2023-02-01T04:13:55;9.18;;;5.68;;
60233;SDS011;49514;43.538;-5.708;2023-02-01T04:16:21;9.73;;;5.60;;
60233;SDS011;49514;43.538;-5.708;2023-02-01T04:18:48;11.43;;;5.90;;
60233;SDS011;49514;43.538;-5.708;2023-02-01T04:21:15;9.73;;;5.43;;
60233;SDS011;49514;43.538;-5.708;2023-02-01T04:23:41;10.97;;;5.60;;
60233;SDS011;49514;43.538;-5.708;2023-02-01T04:26:08;15.43;;;6.18;;
60233;SDS011;49514;43.538;-5.708;2023-02-01T04:28:34;11.32;;;5.82;;
60233;SDS011;49514;43.538;-5.708;2023-02-01T04:31:01;11.02;;;5.95;;
60233;SDS011;49514;43.538;-5.708;2023-02-01T04:33:28;10.27;;;5.28;;
60233;SDS011;49514;43.538;-5.708;2023-02-01T04:35:54;11.25;;;6.00;;
60233;SDS011;49514;43.538;-5.708;2023-02-01T04:38:21;18.02;;;5.72;;
60233;SDS011;49514;43.538;-5.708;2023-02-01T04:40:47;14.10;;;5.95;;
60233;SDS011;49514;43.538;-5.708;2023-02-01T04:43:15;10.30;;;5.53;;
60233;SDS011;49514;43.538;-5.708;2023-02-01T04:45:46;13.75;;;6.47;;
60233;SDS011;49514;43.538;-5.708;2023-02-01T04:48:17;12.67;;;5.87;;
60233;SDS011;49514;43.538;-5.708;2023-02-01T04:50:45;11.80;;;5.95;;
60233;SDS011;49514;43.538;-5.708;2023-02-01T04:53:13;14.00;;;6.27;;
60233;SDS011;49514;43.538;-5.708;2023-02-01T04:55:41;15.45;;;6.80;;
60233;SDS011;49514;43.538;-5.708;2023-02-01T04:58:08;13.40;;;6.85;;
60233;SDS011;49514;43.538;-5.708;2023-02-01T05:00:36;15.20;;;6.70;;
60233;SDS011;49514;43.538;-5.708;2023-02-01T05:03:03;18.92;;;7.32;;
60233;SDS011;49514;43.538;-5.708;2023-02-01T05:05:29;17.17;;;6.80;;
60233;SDS011;49514;43.538;-5.708;2023-02-01T05:07:56;15.32;;;6.90;;
60233;SDS011;49514;43.538;-5.708;2023-02-01T05:10:22;16.17;;;7.13;;
60233;SDS011;49514;43.538;-5.708;2023-02-01T05:12:50;18.05;;;7.45;;
60233;SDS011;49514;43.538;-5.708;2023-02-01T05:15:35;21.60;;;8.25;;
60233;SDS011;49514;43.538;-5.708;2023-02-01T05:18:01;23.83;;;10.10;;
60233;SDS011;49514;43.538;-5.708;2023-02-01T05:20:28;35.30;;;10.90;;
60233;SDS011;49514;43.538;-5.708;2023-02-01T05:22:55;32.13;;;10.32;;
60233;SDS011;49514;43.538;-5.708;2023-02-01T05:25:21;22.40;;;8.68;;
60233;SDS011;49514;43.538;-5.708;2023-02-01T05:27:48;23.00;;;9.80;;
60233;SDS011;49514;43.538;-5.708;2023-02-01T05:30:15;25.85;;;9.23;;
60233;SDS011;49514;43.538;-5.708;2023-02-01T05:32:42;20.90;;;8.13;;
60233;SDS011;49514;43.538;-5.708;2023-02-01T05:35:08;25.70;;;8.57;;
60233;SDS011;49514;43.538;-5.708;2023-02-01T05:37:35;17.13;;;6.70;;
60233;SDS011;49514;43.538;-5.708;2023-02-01T05:40:02;15.88;;;6.30;;
60233;SDS011;49514;43.538;-5.708;2023-02-01T05:42:28;19.57;;;6.37;;
60233;SDS011;49514;43.538;-5.708;2023-02-01T05:44:55;16.65;;;7.00;;
60233;SDS011;49514;43.538;-5.708;2023-02-01T05:47:21;21.02;;;7.30;;
60233;SDS011;49514;43.538;-5.708;2023-02-01T05:49:48;27.23;;;8.07;;
60233;SDS011;49514;43.538;-5.708;2023-02-01T05:52:15;18.88;;;6.43;;
60233;SDS011;49514;43.538;-5.708;2023-02-01T05:54:45;31.55;;;7.43;;
60233;SDS011;49514;43.538;-5.708;2023-02-01T05:57:15;19.60;;;5.90;;
60233;SDS011;49514;43.538;-5.708;2023-02-01T05:59:42;21.80;;;6.40;;
60233;SDS011;49514;43.538;-5.708;2023-02-01T06:02:10;22.38;;;6.57;;
60233;SDS011;49514;43.538;-5.708;2023-02-01T06:04:37;31.40;;;7.17;;
60233;SDS011;49514;43.538;-5.708;2023-02-01T06:07:05;25.55;;;6.95;;
60233;SDS011;49514;43.538;-5.708;2023-02-01T06:09:34;25.48;;;7.43;;
60233;SDS011;49514;43.538;-5.708;2023-02-01T06:12:01;31.40;;;8.57;;
60233;SDS011;49514;43.538;-5.708;2023-02-01T06:14:29;16.97;;;7.13;;
60233;SDS011;49514;43.538;-5.708;2023-02-01T06:16:56;17.13;;;6.50;;
60233;SDS011;49514;43.538;-5.708;2023-02-01T06:19:23;15.65;;;6.43;;
60233;SDS011;49514;43.538;-5.708;2023-02-01T06:21:50;19.17;;;7.00;;
60233;SDS011;49514;43.538;-5.708;2023-02-01T06:24:17;27.45;;;8.38;;
60233;SDS011;49514;43.538;-5.708;2023-02-01T06:26:44;24.83;;;7.53;;
60233;SDS011;49514;43.538;-5.708;2023-02-01T06:29:10;24.90;;;7.88;;
60233;SDS011;49514;43.538;-5.708;2023-02-01T06:31:37;20.73;;;7.43;;
60233;SDS011;49514;43.538;-5.708;2023-02-01T06:34:05;29.65;;;9.80;;
60233;SDS011;49514;43.538;-5.708;2023-02-01T06:36:32;27.70;;;10.98;;
60233;SDS011;49514;43.538;-5.708;2023-02-01T06:38:58;33.00;;;10.97;;
60233;SDS011;49514;43.538;-5.708;2023-02-01T06:41:25;33.35;;;12.63;;
60233;SDS011;49514;43.538;-5.708;2023-02-01T06:43:52;33.22;;;10.23;;
60233;SDS011;49514;43.538;-5.708;2023-02-01T06:46:19;40.55;;;9.70;;
60233;SDS011;49514;43.538;-5.708;2023-02-01T06:48:46;36.17;;;11.87;;
60233;SDS011;49514;43.538;-5.708;2023-02-01T06:51:19;42.17;;;12.18;;
60233;SDS011;49514;43.538;-5.708;2023-02-01T06:53:50;40.70;;;11.23;;
60233;SDS011;49514;43.538;-5.708;2023-02-01T06:56:17;37.45;;;11.57;;
60233;SDS011;49514;43.538;-5.708;2023-02-01T06:58:44;41.72;;;15.35;;
60233;SDS011;49514;43.538;-5.708;2023-02-01T07:01:11;54.78;;;18.70;;
60233;SDS011;49514;43.538;-5.708;2023-02-01T07:03:39;50.67;;;18.13;;
60233;SDS011;49514;43.538;-5.708;2023-02-01T07:06:06;27.80;;;11.02;;
60233;SDS011;49514;43.538;-5.708;2023-02-01T07:08:34;31.98;;;13.00;;
60233;SDS011;49514;43.538;-5.708;2023-02-01T07:11:03;34.20;;;13.13;;
60233;SDS011;49514;43.538;-5.708;2023-02-01T07:13:38;27.83;;;9.93;;
60233;SDS011;49514;43.538;-5.708;2023-02-01T07:16:07;25.05;;;9.10;;
60233;SDS011;49514;43.538;-5.708;2023-02-01T07:18:39;32.75;;;9.98;;
60233;SDS011;49514;43.538;-5.708;2023-02-01T07:21:06;23.13;;;7.75;;
60233;SDS011;49514;43.538;-5.708;2023-02-01T07:23:34;26.02;;;7.25;;
60233;SDS011;49514;43.538;-5.708;2023-02-01T07:26:02;36.65;;;9.02;;
60233;SDS011;49514;43.538;-5.708;2023-02-01T07:28:31;29.45;;;10.38;;
60233;SDS011;49514;43.538;-5.708;2023-02-01T07:31:03;31.85;;;10.50;;
60233;SDS011;49514;43.538;-5.708;2023-02-01T07:33:30;33.42;;;12.82;;
60233;SDS011;49514;43.538;-5.708;2023-02-01T07:36:00;31.63;;;10.88;;
60233;SDS011;49514;43.538;-5.708;2023-02-01T07:38:28;29.30;;;9.13;;
60233;SDS011;49514;43.538;-5.708;2023-02-01T07:40:59;21.20;;;7.30;;
60233;SDS011;49514;43.538;-5.708;2023-02-01T07:43:27;22.85;;;7.03;;
60233;SDS011;49514;43.538;-5.708;2023-02-01T07:45:55;17.80;;;7.55;;
60233;SDS011;49514;43.538;-5.708;2023-02-01T07:48:22;27.27;;;8.02;;
60233;SDS011;49514;43.538;-5.708;2023-02-01T07:51:23;25.27;;;8.82;;
60233;SDS011;49514;43.538;-5.708;2023-02-01T07:53:43;28.57;;;10.33;;
60233;SDS011;49514;43.538;-5.708;2023-02-01T07:56:14;31.70;;;10.90;;
60233;SDS011;49514;43.538;-5.708;2023-02-01T07:58:47;36.20;;;11.40;;
60233;SDS011;49514;43.538;-5.708;2023-02-01T08:01:19;29.70;;;10.63;;
60233;SDS011;49514;43.538;-5.708;2023-02-01T08:03:50;26.45;;;10.18;;
60233;SDS011;49514;43.538;-5.708;2023-02-01T08:06:25;21.77;;;9.17;;
60233;SDS011;49514;43.538;-5.708;2023-02-01T08:08:54;18.65;;;7.47;;
60233;SDS011;49514;43.538;-5.708;2023-02-01T08:11:21;14.50;;;5.97;;
60233;SDS011;49514;43.538;-5.708;2023-02-01T08:13:49;13.52;;;5.20;;
60233;SDS011;49514;43.538;-5.708;2023-02-01T08:16:16;20.75;;;6.57;;
60233;SDS011;49514;43.538;-5.708;2023-02-01T08:18:44;21.10;;;7.45;;
60233;SDS011;49514;43.538;-5.708;2023-02-01T08:21:13;27.77;;;8.00;;
60233;SDS011;49514;43.538;-5.708;2023-02-01T08:23:48;34.50;;;9.27;;
60233;SDS011;49514;43.538;-5.708;2023-02-01T08:26:15;25.95;;;8.75;;
60233;SDS011;49514;43.538;-5.708;2023-02-01T08:28:43;29.85;;;7.50;;
60233;SDS011;49514;43.538;-5.708;2023-02-01T08:31:16;22.00;;;8.88;;
60233;SDS011;49514;43.538;-5.708;2023-02-01T08:33:47;30.45;;;9.35;;
60233;SDS011;49514;43.538;-5.708;2023-02-01T08:36:16;31.50;;;11.13;;
60233;SDS011;49514;43.538;-5.708;2023-02-01T08:38:43;30.40;;;11.18;;
60233;SDS011;49514;43.538;-5.708;2023-02-01T08:41:14;24.77;;;9.82;;
60233;SDS011;49514;43.538;-5.708;2023-02-01T08:43:43;26.63;;;10.23;;
60233;SDS011;49514;43.538;-5.708;2023-02-01T08:46:10;21.85;;;9.50;;
60233;SDS011;49514;43.538;-5.708;2023-02-01T08:48:37;31.10;;;11.23;;
60233;SDS011;49514;43.538;-5.708;2023-02-01T08:51:05;33.33;;;14.05;;
60233;SDS011;49514;43.538;-5.708;2023-02-01T08:53:35;30.20;;;11.53;;
60233;SDS011;49514;43.538;-5.708;2023-02-01T08:56:03;30.77;;;8.98;;
60233;SDS011;49514;43.538;-5.708;2023-02-01T08:58:30;34.97;;;9.05;;
60233;SDS011;49514;43.538;-5.708;2023-02-01T09:00:57;27.85;;;9.25;;
60233;SDS011;49514;43.538;-5.708;2023-02-01T09:03:28;34.37;;;9.00;;
60233;SDS011;49514;43.538;-5.708;2023-02-01T09:05:59;27.10;;;10.43;;
60233;SDS011;49514;43.538;-5.708;2023-02-01T09:08:27;30.38;;;11.43;;
60233;SDS011;49514;43.538;-5.708;2023-02-01T09:10:57;21.83;;;9.32;;
60233;SDS011;49514;43.538;-5.708;2023-02-01T09:13:26;21.52;;;8.27;;
60233;SDS011;49514;43.538;-5.708;2023-02-01T09:15:52;23.35;;;8.10;;
60233;SDS011;49514;43.538;-5.708;2023-02-01T09:18:19;21.95;;;7.28;;
60233;SDS011;49514;43.538;-5.708;2023-02-01T09:20:46;22.38;;;7.15;;
60233;SDS011;49514;43.538;-5.708;2023-02-01T09:23:13;25.55;;;9.85;;
60233;SDS011;49514;43.538;-5.708;2023-02-01T09:25:40;23.13;;;8.43;;
60233;SDS011;49514;43.538;-5.708;2023-02-01T09:28:06;37.22;;;8.93;;
60233;SDS011;49514;43.538;-5.708;2023-02-01T09:30:35;30.88;;;7.55;;
60233;SDS011;49514;43.538;-5.708;2023-02-01T09:33:03;26.17;;;6.05;;
60233;SDS011;49514;43.538;-5.708;2023-02-01T09:35:30;18.48;;;5.97;;
60233;SDS011;49514;43.538;-5.708;2023-02-01T09:37:57;33.60;;;6.85;;
60233;SDS011;49514;43.538;-5.708;2023-02-01T09:40:24;29.35;;;6.35;;
60233;SDS011;49514;43.538;-5.708;2023-02-01T09:48:35;43.90;;;6.40;;
60233;SDS011;49514;43.538;-5.708;2023-02-01T09:51:06;56.83;;;7.33;;
60233;SDS011;49514;43.538;-5.708;2023-02-01T09:53:42;47.47;;;7.13;;
60233;SDS011;49514;43.538;-5.708;2023-02-01T09:56:21;34.33;;;6.25;;
60233;SDS011;49514;43.538;-5.708;2023-02-01T09:59:05;26.02;;;8.02;;
60233;SDS011;49514;43.538;-5.708;2023-02-01T10:01:46;28.02;;;8.02;;
60233;SDS011;49514;43.538;-5.708;2023-02-01T10:04:13;27.17;;;7.60;;
60233;SDS011;49514;43.538;-5.708;2023-02-01T10:23:24;13.65;;;4.90;;
60233;SDS011;49514;43.538;-5.708;2023-02-01T10:25:55;14.70;;;6.70;;
60233;SDS011;49514;43.538;-5.708;2023-02-01T10:30:54;16.80;;;6.40;;
60233;SDS011;49514;43.538;-5.708;2023-02-01T10:33:25;13.80;;;5.03;;
60233;SDS011;49514;43.538;-5.708;2023-02-01T10:36:10;10.63;;;3.45;;
60233;SDS011;49514;43.538;-5.708;2023-02-01T10:38:51;10.73;;;4.78;;
60233;SDS011;49514;43.538;-5.708;2023-02-01T10:41:19;15.63;;;4.72;;
60233;SDS011;49514;43.538;-5.708;2023-02-01T10:43:52;12.20;;;3.58;;
60233;SDS011;49514;43.538;-5.708;2023-02-01T10:46:24;10.55;;;3.22;;
60233;SDS011;49514;43.538;-5.708;2023-02-01T10:48:52;17.45;;;4.68;;
60233;SDS011;49514;43.538;-5.708;2023-02-01T10:51:23;15.80;;;4.22;;
60233;SDS011;49514;43.538;-5.708;2023-02-01T10:56:23;10.25;;;4.22;;
60233;SDS011;49514;43.538;-5.708;2023-02-01T10:58:59;11.38;;;4.10;;
60233;SDS011;49514;43.538;-5.708;2023-02-01T11:01:40;19.00;;;5.53;;
60233;SDS011;49514;43.538;-5.708;2023-02-01T11:04:15;27.05;;;5.30;;
60233;SDS011;49514;43.538;-5.708;2023-02-01T11:09:21;25.40;;;4.82;;
60233;SDS011;49514;43.538;-5.708;2023-02-01T11:14:18;11.05;;;3.50;;
60233;SDS011;49514;43.538;-5.708;2023-02-01T11:16:57;9.57;;;3.55;;
60233;SDS011;49514;43.538;-5.708;2023-02-01T11:19:26;9.60;;;2.85;;
60233;SDS011;49514;43.538;-5.708;2023-02-01T11:21:57;9.70;;;3.60;;
60233;SDS011;49514;43.538;-5.708;2023-02-01T11:26:56;9.32;;;3.15;;
60233;SDS011;49514;43.538;-5.708;2023-02-01T11:29:24;10.18;;;2.92;;
60233;SDS011;49514;43.538;-5.708;2023-02-01T11:36:57;7.60;;;2.70;;
60233;SDS011;49514;43.538;-5.708;2023-02-01T11:39:30;6.38;;;2.78;;
60233;SDS011;49514;43.538;-5.708;2023-02-01T11:42:32;8.05;;;2.20;;
60233;SDS011;49514;43.538;-5.708;2023-02-01T12:06:29;6.32;;;2.67;;
60233;SDS011;49514;43.538;-5.708;2023-02-01T12:15:08;7.38;;;2.80;;
60233;SDS011;49514;43.538;-5.708;2023-02-01T12:17:51;6.00;;;2.70;;
60233;SDS011;49514;43.538;-5.708;2023-02-01T12:28:47;4.63;;;1.30;;
60233;SDS011;49514;43.538;-5.708;2023-02-01T12:37:21;5.82;;;1.40;;
60233;SDS011;49514;43.538;-5.708;2023-02-01T12:42:52;7.70;;;2.40;;
60233;SDS011;49514;43.538;-5.708;2023-02-01T12:45:44;5.38;;;1.38;;
60233;SDS011;49514;43.538;-5.708;2023-02-01T12:48:37;3.13;;;1.23;;
60233;SDS011;49514;43.538;-5.708;2023-02-01T12:51:14;3.70;;;1.50;;
60233;SDS011;49514;43.538;-5.708;2023-02-01T12:53:46;4.30;;;1.70;;
60233;SDS011;49514;43.538;-5.708;2023-02-01T12:56:39;4.35;;;1.15;;
60233;SDS011;49514;43.538;-5.708;2023-02-01T13:02:06;4.57;;;1.42;;
60233;SDS011;49514;43.538;-5.708;2023-02-01T13:05:12;4.68;;;1.30;;
60233;SDS011;49514;43.538;-5.708;2023-02-01T13:08:02;4.37;;;1.30;;
60233;SDS011;49514;43.538;-5.708;2023-02-01T14:43:46;2.70;;;0.60;;
60233;SDS011;49514;43.538;-5.708;2023-02-01T15:21:56;3.63;;;1.00;;
60233;SDS011;49514;43.538;-5.708;2023-02-01T15:26:53;4.88;;;1.00;;
60233;SDS011;49514;43.538;-5.708;2023-02-01T15:29:22;5.30;;;1.20;;
60233;SDS011;49514;43.538;-5.708;2023-02-01T15:31:58;3.15;;;0.90;;
60233;SDS011;49514;43.538;-5.708;2023-02-01T15:34:49;3.28;;;1.10;;
60233;SDS011;49514;43.538;-5.708;2023-02-01T15:37:16;9.05;;;1.50;;
60233;SDS011;49514;43.538;-5.708;2023-02-01T15:42:54;8.82;;;1.20;;
60233;SDS011;49514;43.538;-5.708;2023-02-01T15:45:27;8.63;;;1.17;;
60233;SDS011;49514;43.538;-5.708;2023-02-01T15:47:56;11.57;;;1.50;;
60233;SDS011;49514;43.538;-5.708;2023-02-01T15:50:24;9.20;;;1.30;;
60233;SDS011;49514;43.538;-5.708;2023-02-01T15:52:52;7.57;;;1.25;;
60233;SDS011;49514;43.538;-5.708;2023-02-01T15:55:30;6.15;;;1.23;;
60233;SDS011;49514;43.538;-5.708;2023-02-01T15:58:07;4.57;;;1.10;;
60233;SDS011;49514;43.538;-5.708;2023-02-01T16:00:41;8.50;;;1.38;;
60233;SDS011;49514;43.538;-5.708;2023-02-01T16:03:32;7.70;;;1.63;;
60233;SDS011;49514;43.538;-5.708;2023-02-01T16:06:02;5.05;;;1.33;;
60233;SDS011;49514;43.538;-5.708;2023-02-01T16:08:34;5.75;;;1.67;;
60233;SDS011;49514;43.538;-5.708;2023-02-01T17:12:57;8.25;;;2.25;;
60233;SDS011;49514;43.538;-5.708;2023-02-01T17:15:24;9.88;;;2.78;;
60233;SDS011;49514;43.538;-5.708;2023-02-01T17:17:54;14.27;;;3.50;;
60233;SDS011;49514;43.538;-5.708;2023-02-01T17:20:29;10.77;;;2.70;;
60233;SDS011;49514;43.538;-5.708;2023-02-01T17:23:00;14.35;;;2.63;;
60233;SDS011;49514;43.538;-5.708;2023-02-01T17:25:27;8.75;;;2.15;;
60233;SDS011;49514;43.538;-5.708;2023-02-01T17:27:56;13.32;;;2.25;;
60233;SDS011;49514;43.538;-5.708;2023-02-01T17:30:23;9.60;;;1.92;;
60233;SDS011;49514;43.538;-5.708;2023-02-01T17:32:49;7.53;;;2.05;;
60233;SDS011;49514;43.538;-5.708;2023-02-01T17:35:20;18.42;;;3.05;;
60233;SDS011;49514;43.538;-5.708;2023-02-01T17:37:49;8.18;;;2.03;;
60233;SDS011;49514;43.538;-5.708;2023-02-01T17:40:18;14.50;;;2.70;;
60233;SDS011;49514;43.538;-5.708;2023-02-01T17:42:45;8.38;;;2.00;;
60233;SDS011;49514;43.538;-5.708;2023-02-01T17:45:34;10.77;;;2.28;;
60233;SDS011;49514;43.538;-5.708;2023-02-01T17:48:05;8.98;;;2.38;;
60233;SDS011;49514;43.538;-5.708;2023-02-01T17:50:34;9.00;;;2.33;;
60233;SDS011;49514;43.538;-5.708;2023-02-01T17:53:03;6.90;;;2.13;;
60233;SDS011;49514;43.538;-5.708;2023-02-01T17:55:35;8.52;;;2.38;;
60233;SDS011;49514;43.538;-5.708;2023-02-01T17:58:03;7.65;;;2.28;;
60233;SDS011;49514;43.538;-5.708;2023-02-01T18:00:30;7.95;;;2.30;;
60233;SDS011;49514;43.538;-5.708;2023-02-01T18:02:56;9.05;;;2.40;;
60233;SDS011;49514;43.538;-5.708;2023-02-01T18:08:28;8.82;;;1.73;;
60233;SDS011;49514;43.538;-5.708;2023-02-01T18:10:59;6.95;;;1.60;;
60233;SDS011;49514;43.538;-5.708;2023-02-01T18:13:30;8.95;;;2.00;;
60233;SDS011;49514;43.538;-5.708;2023-02-01T18:15:57;10.20;;;2.08;;
60233;SDS011;49514;43.538;-5.708;2023-02-01T18:18:24;5.15;;;2.00;;
60233;SDS011;49514;43.538;-5.708;2023-02-01T18:20:51;7.53;;;2.13;;
60233;SDS011;49514;43.538;-5.708;2023-02-01T18:23:19;6.93;;;1.95;;
60233;SDS011;49514;43.538;-5.708;2023-02-01T18:25:48;6.38;;;2.20;;
60233;SDS011;49514;43.538;-5.708;2023-02-01T18:28:18;7.88;;;2.05;;
60233;SDS011;49514;43.538;-5.708;2023-02-01T18:30:46;4.75;;;1.80;;
60233;SDS011;49514;43.538;-5.708;2023-02-01T18:33:16;6.38;;;1.80;;
60233;SDS011;49514;43.538;-5.708;2023-02-01T18:35:44;3.90;;;1.80;;
60233;SDS011;49514;43.538;-5.708;2023-02-01T18:38:11;6.75;;;2.05;;
60233;SDS011;49514;43.538;-5.708;2023-02-01T18:40:48;4.13;;;1.80;;
60233;SDS011;49514;43.538;-5.708;2023-02-01T18:43:15;5.95;;;2.20;;
60233;SDS011;49514;43.538;-5.708;2023-02-01T18:45:43;8.15;;;2.10;;
60233;SDS011;49514;43.538;-5.708;2023-02-01T18:48:12;5.68;;;1.90;;
60233;SDS011;49514;43.538;-5.708;2023-02-01T18:50:41;4.25;;;2.03;;
60233;SDS011;49514;43.538;-5.708;2023-02-01T18:53:11;9.90;;;2.42;;
60233;SDS011;49514;43.538;-5.708;2023-02-01T18:55:39;5.65;;;1.77;;
60233;SDS011;49514;43.538;-5.708;2023-02-01T18:58:06;5.60;;;2.08;;
60233;SDS011;49514;43.538;-5.708;2023-02-01T19:00:35;5.93;;;1.95;;
60233;SDS011;49514;43.538;-5.708;2023-02-01T19:03:02;6.78;;;2.00;;
60233;SDS011;49514;43.538;-5.708;2023-02-01T19:05:29;6.03;;;2.00;;
60233;SDS011;49514;43.538;-5.708;2023-02-01T19:07:56;5.95;;;1.83;;
60233;SDS011;49514;43.538;-5.708;2023-02-01T19:10:23;10.23;;;2.30;;
60233;SDS011;49514;43.538;-5.708;2023-02-01T19:12:51;7.55;;;2.70;;
60233;SDS011;49514;43.538;-5.708;2023-02-01T19:15:20;6.63;;;2.60;;
60233;SDS011;49514;43.538;-5.708;2023-02-01T19:17:47;8.27;;;2.72;;
60233;SDS011;49514;43.538;-5.708;2023-02-01T19:20:16;7.68;;;2.50;;
60233;SDS011;49514;43.538;-5.708;2023-02-01T19:22:45;7.90;;;2.67;;
60233;SDS011;49514;43.538;-5.708;2023-02-01T19:25:16;10.65;;;2.70;;
60233;SDS011;49514;43.538;-5.708;2023-02-01T19:27:45;8.40;;;2.50;;
60233;SDS011;49514;43.538;-5.708;2023-02-01T19:30:12;7.70;;;2.43;;
60233;SDS011;49514;43.538;-5.708;2023-02-01T19:32:40;8.95;;;2.90;;
60233;SDS011;49514;43.538;-5.708;2023-02-01T19:35:07;9.48;;;3.03;;
60233;SDS011;49514;43.538;-5.708;2023-02-01T19:37:39;7.25;;;2.97;;
60233;SDS011;49514;43.538;-5.708;2023-02-01T19:40:08;11.50;;;3.88;;
60233;SDS011;49514;43.538;-5.708;2023-02-01T19:42:36;11.55;;;4.03;;
60233;SDS011;49514;43.538;-5.708;2023-02-01T19:45:04;8.88;;;3.78;;
60233;SDS011;49514;43.538;-5.708;2023-02-01T19:47:31;10.48;;;3.03;;
60233;SDS011;49514;43.538;-5.708;2023-02-01T19:49:59;6.37;;;3.07;;
60233;SDS011;49514;43.538;-5.708;2023-02-01T19:52:26;8.90;;;3.15;;
60233;SDS011;49514;43.538;-5.708;2023-02-01T19:54:53;6.63;;;3.00;;
60233;SDS011;49514;43.538;-5.708;2023-02-01T19:57:20;8.00;;;3.42;;
60233;SDS011;49514;43.538;-5.708;2023-02-01T19:59:47;7.07;;;3.10;;
60233;SDS011;49514;43.538;-5.708;2023-02-01T20:02:14;8.00;;;3.10;;